createdAt,value
2023-12-21T00:00:57.381Z,3.27
2023-12-21T00:05:59.602Z,3.20
2023-12-21T00:11:05.956Z,3.11
2023-12-21T00:16:08.155Z,3.02
2023-12-21T00:21:10.225Z,2.96
2023-12-21T00:26:12.287Z,2.97
2023-12-21T00:31:14.246Z,3.02
2023-12-21T00:36:18.191Z,3.07
2023-12-21T00:41:20.486Z,3.10
2023-12-21T00:46:22.516Z,3.15
2023-12-21T00:51:24.574Z,3.21
2023-12-21T00:56:26.953Z,3.24
2023-12-21T01:01:36.149Z,3.28
2023-12-21T01:06:38.235Z,3.31
2023-12-21T01:11:40.125Z,3.37
2023-12-21T01:16:42.248Z,3.42
2023-12-21T01:21:44.681Z,3.45
2023-12-21T01:26:46.820Z,3.46
2023-12-21T01:31:49.165Z,3.50
2023-12-21T01:36:51.301Z,3.56
2023-12-21T01:41:53.383Z,3.62
2023-12-21T01:46:55.805Z,3.66
2023-12-21T01:51:58.407Z,3.70
2023-12-21T01:57:00.683Z,3.76
2023-12-21T02:02:03.140Z,3.85
2023-12-21T02:07:05.797Z,3.90
2023-12-21T02:12:08.155Z,3.89
2023-12-21T02:17:19.922Z,3.88
2023-12-21T02:22:26.336Z,3.90
2023-12-21T02:27:29.038Z,3.88
2023-12-21T02:32:31.185Z,3.85
2023-12-21T02:37:33.157Z,3.81
2023-12-21T02:42:35.389Z,3.80
2023-12-21T02:47:37.394Z,3.78
2023-12-21T02:52:39.474Z,3.73
2023-12-21T02:57:41.497Z,3.64
2023-12-21T03:02:43.428Z,3.53
2023-12-21T03:07:45.485Z,3.41
2023-12-21T03:12:47.829Z,3.30
2023-12-21T03:17:50.281Z,3.16
2023-12-21T03:22:52.476Z,3.02
2023-12-21T03:27:54.458Z,2.92
2023-12-21T03:32:56.569Z,2.85
2023-12-21T03:37:58.639Z,2.81
2023-12-21T03:43:00.718Z,2.72
2023-12-21T03:48:02.901Z,2.63
2023-12-21T03:53:08.583Z,2.59
2023-12-21T03:58:10.892Z,2.59
2023-12-21T04:03:13.515Z,2.59
2023-12-21T04:08:16.799Z,2.59
2023-12-21T04:13:18.936Z,2.61
2023-12-21T04:18:21.339Z,2.69
2023-12-21T04:23:23.447Z,2.84
2023-12-21T04:28:25.686Z,2.95
2023-12-21T04:33:27.921Z,3.03
2023-12-21T04:38:30.095Z,3.07
2023-12-21T04:43:31.954Z,3.14
2023-12-21T04:48:34.199Z,3.26
2023-12-21T04:53:36.272Z,3.34
2023-12-21T04:58:39.670Z,3.42
2023-12-21T05:03:41.933Z,3.47
2023-12-21T05:08:44.061Z,3.52
2023-12-21T05:13:46.079Z,3.55
2023-12-21T05:18:50.871Z,3.57
2023-12-21T05:23:53.045Z,3.57
2023-12-21T05:28:58.414Z,3.59
2023-12-21T05:34:00.537Z,3.61
2023-12-21T05:39:04.114Z,3.64
2023-12-21T05:44:19.304Z,3.61
2023-12-21T05:49:21.616Z,3.59
2023-12-21T05:54:23.879Z,3.58
2023-12-21T05:59:25.870Z,3.54
2023-12-21T06:04:28.209Z,3.46
2023-12-21T06:09:30.650Z,3.40
2023-12-21T06:14:32.753Z,3.37
2023-12-21T06:19:35.847Z,3.33
2023-12-21T06:24:38.170Z,3.28
2023-12-21T06:29:42.571Z,3.28
2023-12-21T06:34:44.649Z,3.28
2023-12-21T06:39:46.549Z,3.27
2023-12-21T06:44:48.435Z,3.25
2023-12-21T06:49:50.458Z,3.23
2023-12-21T06:54:59.023Z,3.22
2023-12-21T07:00:01.258Z,3.18
2023-12-21T07:05:04.167Z,3.13
2023-12-21T07:10:07.255Z,3.09
2023-12-21T07:15:10.269Z,3.07
2023-12-21T07:20:13.347Z,3.04
2023-12-21T07:25:15.381Z,2.97
2023-12-21T07:30:18.116Z,2.94
2023-12-21T07:35:20.020Z,2.93
2023-12-21T07:40:22.103Z,2.93
2023-12-21T07:45:24.095Z,2.95
2023-12-21T07:50:26.592Z,3.04
2023-12-21T07:55:28.834Z,3.16
2023-12-21T08:00:31.071Z,3.25
2023-12-21T08:05:33.038Z,3.30
2023-12-21T08:10:35.057Z,3.34
2023-12-21T08:15:36.999Z,3.42
2023-12-21T08:20:42.860Z,3.52
2023-12-21T08:25:45.769Z,3.39
2023-12-21T08:30:47.962Z,3.53
2023-12-21T08:35:50.062Z,3.63
2023-12-21T08:40:52.175Z,3.79
2023-12-21T08:45:54.345Z,3.95
2023-12-21T08:50:56.478Z,4.11
2023-12-21T08:55:58.432Z,4.17
2023-12-21T09:01:00.787Z,4.49
2023-12-21T09:06:03.715Z,4.54
2023-12-21T09:11:06.795Z,4.56
2023-12-21T09:16:11.390Z,4.54
2023-12-21T09:21:14.130Z,4.52
2023-12-21T09:26:16.107Z,4.48
2023-12-21T09:31:19.045Z,4.52
2023-12-21T09:36:21.122Z,4.52
2023-12-21T09:41:23.043Z,4.53
2023-12-21T09:46:27.367Z,4.55
2023-12-21T09:51:29.804Z,4.65
2023-12-21T09:56:33.681Z,4.84
2023-12-21T10:01:35.663Z,4.99
2023-12-21T10:06:38.824Z,5.11
2023-12-21T10:11:42.136Z,5.20
2023-12-21T10:16:44.220Z,5.22
2023-12-21T10:21:47.659Z,5.24
2023-12-21T10:26:51.540Z,5.24
2023-12-21T10:31:54.453Z,5.26
2023-12-21T10:37:02.486Z,5.28
2023-12-21T10:42:05.662Z,5.32
2023-12-21T10:47:07.969Z,5.37
2023-12-21T10:52:11.525Z,5.45
2023-12-21T10:57:15.436Z,5.44
2023-12-21T11:02:19.947Z,5.37
2023-12-21T11:07:23.793Z,5.32
2023-12-21T11:12:26.093Z,5.24
2023-12-21T11:17:28.933Z,5.21
2023-12-21T11:22:31.119Z,5.18
2023-12-21T11:27:33.266Z,5.13
2023-12-21T11:32:35.449Z,5.09
2023-12-21T11:37:38.951Z,5.08
2023-12-21T11:42:41.053Z,5.04
2023-12-21T11:47:46.148Z,4.98
2023-12-21T11:53:01.351Z,4.95
2023-12-21T11:58:24.291Z,4.94
2023-12-21T12:03:29.760Z,4.91
2023-12-21T12:08:34.921Z,4.84
2023-12-21T12:13:36.954Z,4.80
2023-12-21T12:18:41.222Z,4.79
2023-12-21T12:23:47.972Z,4.78
2023-12-21T12:28:53.682Z,4.75
2023-12-21T12:33:56.781Z,4.70
2023-12-21T12:38:59.415Z,4.66
2023-12-21T12:44:01.508Z,4.62
2023-12-21T12:49:03.876Z,4.53
2023-12-21T12:54:08.233Z,4.45
2023-12-21T12:59:10.217Z,4.40
2023-12-21T13:04:13.663Z,4.38
2023-12-21T13:09:17.123Z,4.35
2023-12-21T13:14:19.305Z,4.33
2023-12-21T13:19:25.897Z,4.32
2023-12-21T13:24:28.500Z,4.30
2023-12-21T13:29:41.219Z,4.28
2023-12-21T13:34:43.150Z,4.25
2023-12-21T13:39:50.149Z,4.25
2023-12-21T13:44:52.210Z,4.24
2023-12-21T13:49:54.220Z,4.23
2023-12-21T13:54:56.381Z,4.23
2023-12-21T13:59:59.359Z,4.26
2023-12-21T14:05:01.461Z,4.28
2023-12-21T14:10:04.091Z,4.25
2023-12-21T14:15:07.144Z,4.26
2023-12-21T14:20:09.641Z,4.28
2023-12-21T14:25:11.556Z,4.31
2023-12-21T14:30:14.490Z,4.31
2023-12-21T14:35:16.648Z,4.32
2023-12-21T14:40:18.690Z,4.34
2023-12-21T14:45:21.706Z,4.33
2023-12-21T14:50:24.423Z,4.33
2023-12-21T14:55:26.605Z,4.33
2023-12-21T15:00:28.720Z,4.33
2023-12-21T15:05:30.806Z,4.33
2023-12-21T15:10:33.044Z,4.34
2023-12-21T15:15:35.078Z,4.41
2023-12-21T15:20:37.008Z,4.44
2023-12-21T15:25:39.096Z,4.44
2023-12-21T15:30:41.275Z,4.47
2023-12-21T15:35:43.378Z,4.52
2023-12-21T15:40:45.570Z,4.57
2023-12-21T15:45:47.733Z,4.62
2023-12-21T15:50:50.331Z,4.68
2023-12-21T15:55:52.567Z,4.76
2023-12-21T16:00:54.832Z,4.84
2023-12-21T16:05:57.265Z,4.91
2023-12-21T16:10:59.423Z,4.98
2023-12-21T16:16:03.531Z,5.03
2023-12-21T16:21:05.814Z,5.08
2023-12-21T16:26:07.787Z,5.14
2023-12-21T16:31:10.289Z,5.16
2023-12-21T16:36:13.436Z,5.14
2023-12-21T16:41:15.407Z,5.15
2023-12-21T16:46:17.459Z,5.19
2023-12-21T16:51:19.497Z,5.23
2023-12-21T16:56:23.364Z,5.28
2023-12-21T17:01:25.570Z,5.33
2023-12-21T17:06:27.742Z,5.35
2023-12-21T17:11:30.488Z,5.34
2023-12-21T17:16:33.025Z,5.35
2023-12-21T17:21:35.222Z,5.36
2023-12-21T17:26:37.307Z,5.33
2023-12-21T17:31:39.299Z,5.30
2023-12-21T17:36:41.183Z,5.29
2023-12-21T17:41:44.656Z,5.29
2023-12-21T17:46:46.735Z,5.28
2023-12-21T17:51:49.278Z,5.25
2023-12-21T17:56:52.375Z,5.23
2023-12-21T18:01:54.760Z,5.25
2023-12-21T18:06:56.850Z,5.25
2023-12-21T18:12:00.578Z,5.24
2023-12-21T18:17:02.774Z,5.25
2023-12-21T18:22:08.142Z,5.21
2023-12-21T18:27:10.413Z,5.13
2023-12-21T18:32:12.608Z,5.02
2023-12-21T18:37:14.731Z,4.97
2023-12-21T18:42:17.407Z,4.96
2023-12-21T18:47:19.327Z,4.92
2023-12-21T18:52:21.489Z,4.93
2023-12-21T18:57:23.968Z,5.06
2023-12-21T19:02:25.952Z,5.21
2023-12-21T19:07:27.948Z,5.33
2023-12-21T19:12:30.341Z,5.46
2023-12-21T19:17:35.299Z,5.58
2023-12-21T19:22:37.870Z,5.68
2023-12-21T19:27:42.806Z,5.73
2023-12-21T19:32:44.785Z,5.80
2023-12-21T19:37:47.471Z,5.87
2023-12-21T19:42:50.906Z,5.92
2023-12-21T19:47:53.349Z,5.92
2023-12-21T19:52:55.738Z,5.93
2023-12-21T19:57:58.273Z,5.93
2023-12-21T20:03:02.597Z,5.90
2023-12-21T20:08:06.618Z,5.86
2023-12-21T20:13:09.225Z,5.84
2023-12-21T20:18:11.720Z,5.84
2023-12-21T20:23:14.073Z,5.83
2023-12-21T20:28:16.863Z,5.81
2023-12-21T20:33:19.607Z,5.79
2023-12-21T20:38:22.478Z,5.73
2023-12-21T20:43:26.500Z,5.63
2023-12-21T20:48:31.929Z,5.57
2023-12-21T20:53:34.101Z,5.53
2023-12-21T20:58:36.524Z,5.49
2023-12-21T21:03:38.900Z,5.46
2023-12-21T21:08:41.104Z,5.39
2023-12-21T21:13:43.665Z,5.30
2023-12-21T21:18:45.713Z,5.23
2023-12-21T21:23:49.784Z,5.18
2023-12-21T21:28:53.953Z,5.12
2023-12-21T21:33:56.897Z,5.06
2023-12-21T21:38:59.575Z,5.00
2023-12-21T21:44:01.610Z,5.00
2023-12-21T21:49:03.906Z,5.00
2023-12-21T21:54:06.690Z,4.98
2023-12-21T21:59:08.778Z,4.93
2023-12-21T22:04:11.037Z,4.89
2023-12-21T22:09:14.208Z,4.86
2023-12-21T22:14:17.282Z,4.80
2023-12-21T22:19:19.448Z,4.78
2023-12-21T22:24:21.669Z,4.77
2023-12-21T22:29:23.651Z,4.72
2023-12-21T22:34:25.741Z,4.65
2023-12-21T22:39:28.839Z,4.59
2023-12-21T22:44:30.988Z,4.56
2023-12-21T22:49:33.278Z,4.51
2023-12-21T22:54:36.506Z,4.45
2023-12-21T22:59:39.153Z,4.39
2023-12-21T23:04:42.516Z,4.32
2023-12-21T23:09:45.130Z,4.25
2023-12-21T23:14:47.212Z,4.20
2023-12-21T23:19:49.096Z,4.14
2023-12-21T23:24:51.031Z,4.06
2023-12-21T23:29:58.398Z,4.04
2023-12-21T23:35:08.973Z,4.05
2023-12-21T23:40:19.147Z,4.09
2023-12-21T23:45:21.436Z,4.08
2023-12-21T23:50:23.714Z,4.01
2023-12-21T23:55:25.847Z,3.95
